sensor_id;sensor_type;location;lat;lon;timestamp;pressure;altitude;pressure_sealevel;temperature;humidity
30819;BME280;17546;42.674;23.284;2023-04-04T00:00:28;93310.34;;;14.39;54.40
30819;BME280;17546;42.674;23.284;2023-04-04T00:02:54;93303.66;;;14.50;54.30
30819;BME280;17546;42.674;23.284;2023-04-04T00:05:19;93303.31;;;14.38;54.63
30819;BME280;17546;42.674;23.284;2023-04-04T00:07:47;93293.06;;;14.17;54.49
30819;BME280;17546;42.674;23.284;2023-04-04T00:10:13;93291.41;;;14.14;54.67
30819;BME280;17546;42.674;23.284;2023-04-04T00:12:39;93291.53;;;13.85;55.38
30819;BME280;17546;42.674;23.284;2023-04-04T00:15:05;93317.78;;;14.21;54.80
30819;BME280;17546;42.674;23.284;2023-04-04T00:17:30;93312.06;;;14.57;54.34
30819;BME280;17546;42.674;23.284;2023-04-04T00:19:56;93297.00;;;14.76;53.54
30819;BME280;17546;42.674;23.284;2023-04-04T00:22:22;93290.84;;;14.54;53.94
30819;BME280;17546;42.674;23.284;2023-04-04T00:24:47;93308.84;;;15.07;53.24
30819;BME280;17546;42.674;23.284;2023-04-04T00:27:16;93307.03;;;14.79;53.70
30819;BME280;17546;42.674;23.284;2023-04-04T00:29:42;93281.75;;;14.23;54.54
30819;BME280;17546;42.674;23.284;2023-04-04T00:32:07;93300.72;;;14.78;53.85
30819;BME280;17546;42.674;23.284;2023-04-04T00:34:34;93289.91;;;14.98;53.43
30819;BME280;17546;42.674;23.284;2023-04-04T00:37:00;93289.13;;;15.13;53.09
30819;BME280;17546;42.674;23.284;2023-04-04T00:39:26;93269.03;;;15.22;52.69
30819;BME280;17546;42.674;23.284;2023-04-04T00:41:51;93277.13;;;15.43;52.58
30819;BME280;17546;42.674;23.284;2023-04-04T00:44:17;93287.53;;;15.42;52.60
30819;BME280;17546;42.674;23.284;2023-04-04T00:46:43;93279.88;;;14.87;52.93
30819;BME280;17546;42.674;23.284;2023-04-04T00:49:08;93275.19;;;15.13;52.37
30819;BME280;17546;42.674;23.284;2023-04-04T00:51:34;93268.56;;;15.41;52.22
30819;BME280;17546;42.674;23.284;2023-04-04T00:53:59;93257.38;;;15.48;51.91
30819;BME280;17546;42.674;23.284;2023-04-04T00:56:26;93276.75;;;15.46;51.69
30819;BME280;17546;42.674;23.284;2023-04-04T00:58:53;93264.72;;;15.28;52.12
30819;BME280;17546;42.674;23.284;2023-04-04T01:01:20;93268.28;;;15.14;52.28
30819;BME280;17546;42.674;23.284;2023-04-04T01:03:46;93273.56;;;14.86;53.03
30819;BME280;17546;42.674;23.284;2023-04-04T01:06:13;93262.84;;;15.23;51.99
30819;BME280;17546;42.674;23.284;2023-04-04T01:08:40;93279.53;;;14.91;52.73
30819;BME280;17546;42.674;23.284;2023-04-04T01:11:06;93286.59;;;14.69;53.32
30819;BME280;17546;42.674;23.284;2023-04-04T01:13:33;93272.09;;;14.32;54.04
30819;BME280;17546;42.674;23.284;2023-04-04T01:15:59;93291.22;;;14.27;54.62
30819;BME280;17546;42.674;23.284;2023-04-04T01:18:25;93299.97;;;14.55;54.00
30819;BME280;17546;42.674;23.284;2023-04-04T01:20:57;93304.41;;;14.50;54.05
30819;BME280;17546;42.674;23.284;2023-04-04T01:23:34;93299.22;;;14.85;53.22
30819;BME280;17546;42.674;23.284;2023-04-04T01:26:04;93293.97;;;14.97;52.95
30819;BME280;17546;42.674;23.284;2023-04-04T01:28:30;93287.47;;;15.02;52.91
30819;BME280;17546;42.674;23.284;2023-04-04T01:30:58;93275.34;;;15.22;52.29
30819;BME280;17546;42.674;23.284;2023-04-04T01:33:27;93295.28;;;15.59;51.89
30819;BME280;17546;42.674;23.284;2023-04-04T01:39:04;93292.63;;;15.77;51.61
30819;BME280;17546;42.674;23.284;2023-04-04T01:41:34;93282.56;;;15.81;51.41
30819;BME280;17546;42.674;23.284;2023-04-04T01:44:00;93281.50;;;16.02;51.14
30819;BME280;17546;42.674;23.284;2023-04-04T01:46:26;93256.19;;;16.00;50.95
30819;BME280;17546;42.674;23.284;2023-04-04T01:48:51;93263.72;;;16.15;50.50
30819;BME280;17546;42.674;23.284;2023-04-04T01:51:19;93261.06;;;16.24;50.13
30819;BME280;17546;42.674;23.284;2023-04-04T01:53:45;93239.13;;;16.21;49.88
30819;BME280;17546;42.674;23.284;2023-04-04T01:56:10;93243.16;;;16.27;50.00
30819;BME280;17546;42.674;23.284;2023-04-04T01:58:36;93246.63;;;16.36;49.83
30819;BME280;17546;42.674;23.284;2023-04-04T02:01:01;93226.06;;;16.23;49.70
30819;BME280;17546;42.674;23.284;2023-04-04T02:03:27;93249.94;;;16.42;49.51
30819;BME280;17546;42.674;23.284;2023-04-04T02:05:52;93250.44;;;16.48;49.27
30819;BME280;17546;42.674;23.284;2023-04-04T02:08:18;93232.91;;;16.30;49.29
30819;BME280;17546;42.674;23.284;2023-04-04T02:10:46;93255.16;;;16.38;49.02
30819;BME280;17546;42.674;23.284;2023-04-04T02:13:12;93247.44;;;16.28;49.01
30819;BME280;17546;42.674;23.284;2023-04-04T02:15:37;93251.00;;;15.96;49.36
30819;BME280;17546;42.674;23.284;2023-04-04T02:18:02;93248.09;;;16.11;48.96
30819;BME280;17546;42.674;23.284;2023-04-04T02:20:29;93247.97;;;16.09;48.89
30819;BME280;17546;42.674;23.284;2023-04-04T02:22:55;93228.06;;;16.05;48.62
30819;BME280;17546;42.674;23.284;2023-04-04T02:25:22;93239.50;;;16.17;48.71
30819;BME280;17546;42.674;23.284;2023-04-04T02:27:48;93235.28;;;16.08;48.92
30819;BME280;17546;42.674;23.284;2023-04-04T02:30:14;93241.88;;;15.96;49.57
30819;BME280;17546;42.674;23.284;2023-04-04T02:32:40;93230.88;;;15.98;48.88
30819;BME280;17546;42.674;23.284;2023-04-04T02:35:05;93229.56;;;15.74;49.11
30819;BME280;17546;42.674;23.284;2023-04-04T02:37:31;93234.09;;;15.94;48.94
30819;BME280;17546;42.674;23.284;2023-04-04T02:39:56;93241.59;;;16.09;49.10
30819;BME280;17546;42.674;23.284;2023-04-04T02:42:22;93225.47;;;16.00;49.06
30819;BME280;17546;42.674;23.284;2023-04-04T02:44:47;93234.72;;;16.10;48.99
30819;BME280;17546;42.674;23.284;2023-04-04T02:47:12;93248.88;;;16.12;48.84
30819;BME280;17546;42.674;23.284;2023-04-04T02:49:38;93249.41;;;15.85;48.65
30819;BME280;17546;42.674;23.284;2023-04-04T02:52:03;93242.59;;;16.04;48.56
30819;BME280;17546;42.674;23.284;2023-04-04T02:54:29;93231.06;;;16.00;48.60
30819;BME280;17546;42.674;23.284;2023-04-04T02:56:55;93244.34;;;16.17;48.54
30819;BME280;17546;42.674;23.284;2023-04-04T02:59:20;93252.28;;;16.03;48.74
30819;BME280;17546;42.674;23.284;2023-04-04T03:01:45;93258.88;;;15.90;48.41
30819;BME280;17546;42.674;23.284;2023-04-04T03:04:11;93269.00;;;15.70;48.87
30819;BME280;17546;42.674;23.284;2023-04-04T03:06:38;93262.84;;;15.79;48.95
30819;BME280;17546;42.674;23.284;2023-04-04T03:09:04;93266.66;;;15.91;48.73
30819;BME280;17546;42.674;23.284;2023-04-04T03:11:30;93261.94;;;16.02;48.95
30819;BME280;17546;42.674;23.284;2023-04-04T03:13:56;93272.69;;;16.13;48.84
30819;BME280;17546;42.674;23.284;2023-04-04T03:16:21;93275.88;;;16.09;48.87
30819;BME280;17546;42.674;23.284;2023-04-04T03:18:47;93271.13;;;16.20;48.79
30819;BME280;17546;42.674;23.284;2023-04-04T03:21:13;93270.44;;;16.11;48.48
30819;BME280;17546;42.674;23.284;2023-04-04T03:23:39;93267.41;;;16.25;48.43
30819;BME280;17546;42.674;23.284;2023-04-04T03:26:04;93270.94;;;16.25;48.69
30819;BME280;17546;42.674;23.284;2023-04-04T03:28:29;93270.94;;;16.25;48.62
30819;BME280;17546;42.674;23.284;2023-04-04T03:30:55;93267.78;;;16.21;48.42
30819;BME280;17546;42.674;23.284;2023-04-04T03:33:20;93249.03;;;16.14;48.69
30819;BME280;17546;42.674;23.284;2023-04-04T03:35:46;93268.13;;;16.25;48.31
30819;BME280;17546;42.674;23.284;2023-04-04T03:38:12;93274.06;;;16.29;48.22
30819;BME280;17546;42.674;23.284;2023-04-04T03:40:37;93272.63;;;16.21;48.33
30819;BME280;17546;42.674;23.284;2023-04-04T03:43:06;93274.38;;;16.33;48.11
30819;BME280;17546;42.674;23.284;2023-04-04T03:45:35;93254.94;;;16.18;48.01
30819;BME280;17546;42.674;23.284;2023-04-04T03:48:01;93249.22;;;16.16;48.09
30819;BME280;17546;42.674;23.284;2023-04-04T03:50:26;93275.88;;;16.35;48.32
30819;BME280;17546;42.674;23.284;2023-04-04T03:52:51;93260.38;;;16.16;48.31
30819;BME280;17546;42.674;23.284;2023-04-04T03:55:17;93267.31;;;16.32;48.32
30819;BME280;17546;42.674;23.284;2023-04-04T03:57:42;93265.22;;;16.16;48.71
30819;BME280;17546;42.674;23.284;2023-04-04T04:00:08;93270.47;;;16.37;48.42
30819;BME280;17546;42.674;23.284;2023-04-04T04:02:33;93251.75;;;16.22;48.36
30819;BME280;17546;42.674;23.284;2023-04-04T04:04:59;93267.25;;;16.40;48.27
30819;BME280;17546;42.674;23.284;2023-04-04T04:07:24;93273.59;;;16.41;48.43
30819;BME280;17546;42.674;23.284;2023-04-04T04:09:50;93257.63;;;16.33;48.25
30819;BME280;17546;42.674;23.284;2023-04-04T04:12:15;93269.50;;;16.42;47.96
30819;BME280;17546;42.674;23.284;2023-04-04T04:14:41;93279.84;;;16.49;47.81
30819;BME280;17546;42.674;23.284;2023-04-04T04:17:06;93230.72;;;16.21;47.68
30819;BME280;17546;42.674;23.284;2023-04-04T04:19:32;93278.91;;;16.54;47.90
30819;BME280;17546;42.674;23.284;2023-04-04T04:21:57;93280.97;;;16.53;47.77
30819;BME280;17546;42.674;23.284;2023-04-04T04:24:22;93274.78;;;16.55;47.71
30819;BME280;17546;42.674;23.284;2023-04-04T04:26:48;93282.81;;;16.51;47.95
30819;BME280;17546;42.674;23.284;2023-04-04T04:29:13;93282.38;;;16.37;48.06
30819;BME280;17546;42.674;23.284;2023-04-04T04:31:39;93277.81;;;16.24;48.07
30819;BME280;17546;42.674;23.284;2023-04-04T04:34:07;93295.44;;;16.35;47.74
30819;BME280;17546;42.674;23.284;2023-04-04T04:36:36;93276.72;;;16.20;48.00
30819;BME280;17546;42.674;23.284;2023-04-04T04:39:02;93306.63;;;16.35;48.30
30819;BME280;17546;42.674;23.284;2023-04-04T04:41:27;93298.63;;;16.31;47.88
30819;BME280;17546;42.674;23.284;2023-04-04T04:43:56;93293.19;;;16.08;48.16
30819;BME280;17546;42.674;23.284;2023-04-04T04:46:22;93309.16;;;16.15;48.38
30819;BME280;17546;42.674;23.284;2023-04-04T04:48:47;93305.91;;;16.26;48.47
30819;BME280;17546;42.674;23.284;2023-04-04T04:51:13;93315.19;;;16.37;48.20
30819;BME280;17546;42.674;23.284;2023-04-04T04:53:39;93300.06;;;16.15;48.54
30819;BME280;17546;42.674;23.284;2023-04-04T04:56:05;93304.03;;;16.04;48.73
30819;BME280;17546;42.674;23.284;2023-04-04T04:58:31;93303.75;;;15.84;49.10
30819;BME280;17546;42.674;23.284;2023-04-04T05:00:56;93319.94;;;15.86;49.22
30819;BME280;17546;42.674;23.284;2023-04-04T05:03:22;93305.28;;;15.70;49.55
30819;BME280;17546;42.674;23.284;2023-04-04T05:05:48;93333.50;;;15.89;49.30
30819;BME280;17546;42.674;23.284;2023-04-04T05:08:14;93325.66;;;15.96;49.24
30819;BME280;17546;42.674;23.284;2023-04-04T05:10:40;93341.97;;;16.07;49.32
30819;BME280;17546;42.674;23.284;2023-04-04T05:13:05;93335.81;;;16.16;49.31
30819;BME280;17546;42.674;23.284;2023-04-04T05:15:31;93324.34;;;15.97;49.47
30819;BME280;17546;42.674;23.284;2023-04-04T05:17:56;93334.19;;;16.05;49.29
30819;BME280;17546;42.674;23.284;2023-04-04T05:20:22;93343.44;;;15.75;50.12
30819;BME280;17546;42.674;23.284;2023-04-04T05:22:48;93321.44;;;15.31;51.10
30819;BME280;17546;42.674;23.284;2023-04-04T05:25:13;93345.16;;;15.47;50.97
30819;BME280;17546;42.674;23.284;2023-04-04T05:27:39;93340.91;;;15.46;51.11
30819;BME280;17546;42.674;23.284;2023-04-04T05:30:06;93346.44;;;15.54;50.90
30819;BME280;17546;42.674;23.284;2023-04-04T05:32:34;93344.19;;;15.76;50.47
30819;BME280;17546;42.674;23.284;2023-04-04T05:35:00;93346.19;;;15.83;50.49
30819;BME280;17546;42.674;23.284;2023-04-04T05:37:26;93343.16;;;15.48;50.66
30819;BME280;17546;42.674;23.284;2023-04-04T05:39:52;93349.97;;;15.62;50.88
30819;BME280;17546;42.674;23.284;2023-04-04T05:42:18;93358.13;;;15.76;50.79
30819;BME280;17546;42.674;23.284;2023-04-04T05:44:43;93356.25;;;15.78;50.83
30819;BME280;17546;42.674;23.284;2023-04-04T05:47:08;93363.47;;;15.89;50.84
30819;BME280;17546;42.674;23.284;2023-04-04T05:49:34;93357.28;;;15.50;51.76
30819;BME280;17546;42.674;23.284;2023-04-04T05:51:59;93359.66;;;15.54;51.52
30819;BME280;17546;42.674;23.284;2023-04-04T05:54:25;93361.28;;;14.93;52.61
30819;BME280;17546;42.674;23.284;2023-04-04T05:56:51;93341.03;;;14.77;53.26
30819;BME280;17546;42.674;23.284;2023-04-04T05:59:16;93358.59;;;14.26;54.53
30819;BME280;17546;42.674;23.284;2023-04-04T06:01:42;93365.75;;;14.81;53.64
30819;BME280;17546;42.674;23.284;2023-04-04T06:04:07;93361.25;;;15.24;52.92
30819;BME280;17546;42.674;23.284;2023-04-04T06:06:33;93366.78;;;15.39;52.13
30819;BME280;17546;42.674;23.284;2023-04-04T06:08:58;93362.31;;;15.44;52.15
30819;BME280;17546;42.674;23.284;2023-04-04T06:11:24;93360.91;;;15.76;51.79
30819;BME280;17546;42.674;23.284;2023-04-04T06:13:50;93368.50;;;15.90;51.21
30819;BME280;17546;42.674;23.284;2023-04-04T06:16:17;93362.19;;;15.82;50.94
30819;BME280;17546;42.674;23.284;2023-04-04T06:18:42;93362.94;;;15.83;50.90
30819;BME280;17546;42.674;23.284;2023-04-04T06:21:08;93374.44;;;15.16;52.49
30819;BME280;17546;42.674;23.284;2023-04-04T06:23:33;93383.91;;;15.43;52.55
30819;BME280;17546;42.674;23.284;2023-04-04T06:25:58;93361.69;;;15.61;52.02
30819;BME280;17546;42.674;23.284;2023-04-04T06:28:24;93379.13;;;15.84;51.79
30819;BME280;17546;42.674;23.284;2023-04-04T06:30:49;93382.94;;;16.04;51.18
30819;BME280;17546;42.674;23.284;2023-04-04T06:33:15;93376.22;;;15.52;51.47
30819;BME280;17546;42.674;23.284;2023-04-04T06:35:40;93384.63;;;14.36;51.30
30819;BME280;17546;42.674;23.284;2023-04-04T06:38:06;93413.25;;;14.44;50.62
30819;BME280;17546;42.674;23.284;2023-04-04T06:40:32;93421.81;;;14.54;49.99
30819;BME280;17546;42.674;23.284;2023-04-04T06:42:58;93415.31;;;13.56;51.23
30819;BME280;17546;42.674;23.284;2023-04-04T06:45:24;93411.00;;;12.48;52.49
30819;BME280;17546;42.674;23.284;2023-04-04T06:47:49;93430.44;;;13.39;50.58
30819;BME280;17546;42.674;23.284;2023-04-04T06:50:17;93421.06;;;13.00;50.21
30819;BME280;17546;42.674;23.284;2023-04-04T06:52:43;93437.75;;;12.58;50.45
30819;BME280;17546;42.674;23.284;2023-04-04T06:55:09;93443.53;;;12.39;50.74
30819;BME280;17546;42.674;23.284;2023-04-04T06:57:34;93421.00;;;12.09;51.06
30819;BME280;17546;42.674;23.284;2023-04-04T07:00:01;93425.25;;;11.49;50.57
30819;BME280;17546;42.674;23.284;2023-04-04T07:02:26;93452.69;;;12.13;50.38
30819;BME280;17546;42.674;23.284;2023-04-04T07:04:52;93467.22;;;12.06;50.43
30819;BME280;17546;42.674;23.284;2023-04-04T07:07:17;93467.81;;;12.12;49.76
30819;BME280;17546;42.674;23.284;2023-04-04T07:09:42;93487.72;;;10.45;52.95
30819;BME280;17546;42.674;23.284;2023-04-04T07:12:08;93491.25;;;10.78;52.60
30819;BME280;17546;42.674;23.284;2023-04-04T07:14:33;93495.97;;;10.32;53.71
30819;BME280;17546;42.674;23.284;2023-04-04T07:16:59;93482.63;;;10.49;52.91
30819;BME280;17546;42.674;23.284;2023-04-04T07:19:24;93514.63;;;10.64;52.58
30819;BME280;17546;42.674;23.284;2023-04-04T07:21:55;93518.66;;;10.25;53.46
30819;BME280;17546;42.674;23.284;2023-04-04T07:24:21;93537.56;;;11.10;51.76
30819;BME280;17546;42.674;23.284;2023-04-04T07:26:46;93544.19;;;11.07;51.54
30819;BME280;17546;42.674;23.284;2023-04-04T07:29:12;93521.97;;;10.42;51.80
30819;BME280;17546;42.674;23.284;2023-04-04T07:31:38;93549.66;;;10.42;52.20
30819;BME280;17546;42.674;23.284;2023-04-04T07:34:03;93519.78;;;9.97;51.78
30819;BME280;17546;42.674;23.284;2023-04-04T07:36:29;93558.00;;;9.74;52.64
30819;BME280;17546;42.674;23.284;2023-04-04T07:38:54;93560.09;;;10.11;51.73
30819;BME280;17546;42.674;23.284;2023-04-04T07:41:20;93564.63;;;9.41;53.50
30819;BME280;17546;42.674;23.284;2023-04-04T07:43:47;93564.38;;;9.14;53.24
30819;BME280;17546;42.674;23.284;2023-04-04T07:46:12;93582.13;;;9.24;53.39
30819;BME280;17546;42.674;23.284;2023-04-04T07:48:38;93572.94;;;9.41;53.67
30819;BME280;17546;42.674;23.284;2023-04-04T07:51:04;93554.66;;;9.07;53.84
30819;BME280;17546;42.674;23.284;2023-04-04T07:53:30;93579.78;;;9.04;53.86
30819;BME280;17546;42.674;23.284;2023-04-04T07:55:56;93544.06;;;9.12;53.28
30819;BME280;17546;42.674;23.284;2023-04-04T07:58:21;93577.38;;;9.74;52.46
30819;BME280;17546;42.674;23.284;2023-04-04T08:00:47;93573.47;;;9.64;52.71
30819;BME280;17546;42.674;23.284;2023-04-04T08:03:12;93580.25;;;9.87;51.88
30819;BME280;17546;42.674;23.284;2023-04-04T08:05:39;93590.06;;;9.64;52.42
30819;BME280;17546;42.674;23.284;2023-04-04T08:08:05;93574.63;;;9.19;52.86
30819;BME280;17546;42.674;23.284;2023-04-04T08:10:31;93607.56;;;9.17;53.25
30819;BME280;17546;42.674;23.284;2023-04-04T08:12:57;93594.88;;;9.33;53.08
30819;BME280;17546;42.674;23.284;2023-04-04T08:15:22;93615.31;;;9.24;52.62
30819;BME280;17546;42.674;23.284;2023-04-04T08:17:47;93605.25;;;9.76;51.95
30819;BME280;17546;42.674;23.284;2023-04-04T08:20:14;93603.69;;;9.31;51.99
30819;BME280;17546;42.674;23.284;2023-04-04T08:22:41;93619.38;;;9.72;51.73
30819;BME280;17546;42.674;23.284;2023-04-04T08:25:07;93627.69;;;9.12;52.90
30819;BME280;17546;42.674;23.284;2023-04-04T08:27:33;93601.50;;;9.19;52.46
30819;BME280;17546;42.674;23.284;2023-04-04T08:29:58;93633.53;;;9.03;52.41
30819;BME280;17546;42.674;23.284;2023-04-04T08:32:24;93639.69;;;8.84;52.74
30819;BME280;17546;42.674;23.284;2023-04-04T08:34:49;93635.34;;;9.30;51.47
30819;BME280;17546;42.674;23.284;2023-04-04T08:37:16;93638.22;;;9.14;51.36
30819;BME280;17546;42.674;23.284;2023-04-04T08:39:41;93642.41;;;9.26;50.88
30819;BME280;17546;42.674;23.284;2023-04-04T08:42:07;93640.09;;;9.30;51.43
30819;BME280;17546;42.674;23.284;2023-04-04T08:44:34;93636.50;;;9.41;51.05
30819;BME280;17546;42.674;23.284;2023-04-04T08:47:05;93622.13;;;9.48;50.82
30819;BME280;17546;42.674;23.284;2023-04-04T08:49:42;93641.63;;;9.31;51.14
30819;BME280;17546;42.674;23.284;2023-04-04T08:52:10;93646.63;;;9.33;50.65
30819;BME280;17546;42.674;23.284;2023-04-04T08:54:39;93651.53;;;9.45;50.45
30819;BME280;17546;42.674;23.284;2023-04-04T08:57:05;93653.78;;;9.47;50.05
30819;BME280;17546;42.674;23.284;2023-04-04T08:59:31;93659.63;;;8.66;51.54
30819;BME280;17546;42.674;23.284;2023-04-04T09:04:33;93667.66;;;9.11;50.15
30819;BME280;17546;42.674;23.284;2023-04-04T09:07:00;93648.34;;;8.64;50.10
30819;BME280;17546;42.674;23.284;2023-04-04T09:09:32;93656.84;;;9.13;49.52
30819;BME280;17546;42.674;23.284;2023-04-04T09:11:59;93664.75;;;8.45;51.79
30819;BME280;17546;42.674;23.284;2023-04-04T09:14:26;93671.31;;;8.83;50.33
30819;BME280;17546;42.674;23.284;2023-04-04T09:16:54;93672.41;;;8.69;50.50
30819;BME280;17546;42.674;23.284;2023-04-04T09:19:19;93673.78;;;8.93;49.48
30819;BME280;17546;42.674;23.284;2023-04-04T09:21:46;93651.56;;;8.68;50.41
30819;BME280;17546;42.674;23.284;2023-04-04T09:24:13;93659.28;;;8.86;50.32
30819;BME280;17546;42.674;23.284;2023-04-04T09:27:01;93679.84;;;9.57;48.92
30819;BME280;17546;42.674;23.284;2023-04-04T09:29:27;93667.16;;;9.07;49.36
30819;BME280;17546;42.674;23.284;2023-04-04T09:31:53;93661.00;;;8.89;49.66
30819;BME280;17546;42.674;23.284;2023-04-04T09:34:19;93676.78;;;8.47;50.72
30819;BME280;17546;42.674;23.284;2023-04-04T09:36:45;93670.66;;;8.66;49.91
30819;BME280;17546;42.674;23.284;2023-04-04T09:39:12;93692.91;;;9.26;49.55
30819;BME280;17546;42.674;23.284;2023-04-04T09:41:40;93695.50;;;9.13;49.88
30819;BME280;17546;42.674;23.284;2023-04-04T09:44:06;93694.59;;;9.35;49.75
30819;BME280;17546;42.674;23.284;2023-04-04T09:46:35;93697.31;;;9.41;48.38
30819;BME280;17546;42.674;23.284;2023-04-04T09:49:01;93679.34;;;9.28;48.65
30819;BME280;17546;42.674;23.284;2023-04-04T09:51:35;93706.47;;;8.88;49.83
30819;BME280;17546;42.674;23.284;2023-04-04T09:54:02;93708.50;;;9.54;48.42
30819;BME280;17546;42.674;23.284;2023-04-04T09:56:32;93689.81;;;9.36;48.24
30819;BME280;17546;42.674;23.284;2023-04-04T09:58:58;93681.59;;;8.88;49.23
30819;BME280;17546;42.674;23.284;2023-04-04T10:01:25;93680.28;;;8.48;49.88
30819;BME280;17546;42.674;23.284;2023-04-04T10:03:52;93689.00;;;8.63;49.95
30819;BME280;17546;42.674;23.284;2023-04-04T10:06:19;93674.09;;;8.25;50.35
30819;BME280;17546;42.674;23.284;2023-04-04T10:08:44;93694.59;;;9.65;48.74
30819;BME280;17546;42.674;23.284;2023-04-04T10:11:11;93697.56;;;9.43;48.55
30819;BME280;17546;42.674;23.284;2023-04-04T10:13:37;93702.59;;;9.39;48.42
30819;BME280;17546;42.674;23.284;2023-04-04T10:16:05;93689.53;;;9.03;48.92
30819;BME280;17546;42.674;23.284;2023-04-04T10:18:32;93699.22;;;9.57;47.91
30819;BME280;17546;42.674;23.284;2023-04-04T10:21:00;93683.97;;;8.62;48.90
30819;BME280;17546;42.674;23.284;2023-04-04T10:23:26;93685.50;;;8.63;49.19
30819;BME280;17546;42.674;23.284;2023-04-04T10:25:56;93691.50;;;8.67;49.19
30819;BME280;17546;42.674;23.284;2023-04-04T10:28:23;93712.31;;;9.51;47.73
30819;BME280;17546;42.674;23.284;2023-04-04T10:36:20;93726.84;;;9.21;47.58
30819;BME280;17546;42.674;23.284;2023-04-04T10:38:54;93726.00;;;9.38;47.25
30819;BME280;17546;42.674;23.284;2023-04-04T10:41:24;93732.63;;;9.59;47.33
30819;BME280;17546;42.674;23.284;2023-04-04T10:43:55;93734.13;;;9.60;46.61
30819;BME280;17546;42.674;23.284;2023-04-04T10:46:21;93737.53;;;9.72;45.83
30819;BME280;17546;42.674;23.284;2023-04-04T10:48:56;93714.69;;;8.94;46.87
30819;BME280;17546;42.674;23.284;2023-04-04T10:51:21;93745.25;;;9.49;46.87
30819;BME280;17546;42.674;23.284;2023-04-04T10:53:47;93746.00;;;8.55;48.03
30819;BME280;17546;42.674;23.284;2023-04-04T10:56:13;93752.19;;;8.78;48.11
30819;BME280;17546;42.674;23.284;2023-04-04T10:58:39;93761.06;;;8.60;48.34
30819;BME280;17546;42.674;23.284;2023-04-04T11:01:07;93763.00;;;9.23;47.24
30819;BME280;17546;42.674;23.284;2023-04-04T11:07:03;93741.94;;;8.67;47.73
30819;BME280;17546;42.674;23.284;2023-04-04T11:10:02;93724.44;;;8.48;47.94
30819;BME280;17546;42.674;23.284;2023-04-04T11:12:44;93716.16;;;8.48;48.52
30819;BME280;17546;42.674;23.284;2023-04-04T11:15:12;93753.56;;;9.43;46.82
30819;BME280;17546;42.674;23.284;2023-04-04T11:20:20;93738.69;;;8.69;48.53
30819;BME280;17546;42.674;23.284;2023-04-04T11:25:41;93776.06;;;9.28;47.52
30819;BME280;17546;42.674;23.284;2023-04-04T11:33:55;93771.66;;;8.27;49.66
30819;BME280;17546;42.674;23.284;2023-04-04T11:39:13;93775.72;;;8.90;48.51
30819;BME280;17546;42.674;23.284;2023-04-04T11:41:52;93772.25;;;8.84;48.45
30819;BME280;17546;42.674;23.284;2023-04-04T11:44:20;93781.28;;;8.79;49.23
30819;BME280;17546;42.674;23.284;2023-04-04T11:46:54;93759.81;;;8.50;49.48
30819;BME280;17546;42.674;23.284;2023-04-04T11:49:26;93785.59;;;9.27;48.91
30819;BME280;17546;42.674;23.284;2023-04-04T11:51:53;93778.22;;;9.00;48.99
30819;BME280;17546;42.674;23.284;2023-04-04T11:54:18;93771.34;;;9.18;47.83
30819;BME280;17546;42.674;23.284;2023-04-04T11:56:44;93794.53;;;9.45;47.69
30819;BME280;17546;42.674;23.284;2023-04-04T11:59:10;93798.44;;;9.61;47.58
30819;BME280;17546;42.674;23.284;2023-04-04T12:01:37;93784.06;;;9.32;47.22
30819;BME280;17546;42.674;23.284;2023-04-04T12:04:03;93778.56;;;8.68;48.85
30819;BME280;17546;42.674;23.284;2023-04-04T12:06:29;93785.97;;;9.01;47.99
30819;BME280;17546;42.674;23.284;2023-04-04T12:09:01;93768.81;;;8.67;48.82
30819;BME280;17546;42.674;23.284;2023-04-04T12:11:29;93789.75;;;8.98;48.28
30819;BME280;17546;42.674;23.284;2023-04-04T12:13:55;93795.34;;;9.34;47.64
30819;BME280;17546;42.674;23.284;2023-04-04T12:16:21;93769.84;;;8.53;48.86
30819;BME280;17546;42.674;23.284;2023-04-04T12:18:48;93800.22;;;9.17;47.55
30819;BME280;17546;42.674;23.284;2023-04-04T12:21:13;93794.44;;;9.20;47.55
30819;BME280;17546;42.674;23.284;2023-04-04T12:23:39;93784.78;;;9.38;47.39
30819;BME280;17546;42.674;23.284;2023-04-04T12:26:06;93797.06;;;9.43;47.22
30819;BME280;17546;42.674;23.284;2023-04-04T12:28:34;93779.22;;;9.44;46.95
30819;BME280;17546;42.674;23.284;2023-04-04T12:31:03;93805.03;;;9.10;47.67
30819;BME280;17546;42.674;23.284;2023-04-04T12:33:31;93800.78;;;9.51;47.08
30819;BME280;17546;42.674;23.284;2023-04-04T12:35:58;93801.19;;;9.19;47.54
30819;BME280;17546;42.674;23.284;2023-04-04T12:38:24;93803.97;;;8.33;48.93
30819;BME280;17546;42.674;23.284;2023-04-04T12:40:51;93799.19;;;8.61;48.42
30819;BME280;17546;42.674;23.284;2023-04-04T12:43:17;93809.94;;;8.76;48.64
30819;BME280;17546;42.674;23.284;2023-04-04T12:45:44;93803.00;;;8.30;49.24
30819;BME280;17546;42.674;23.284;2023-04-04T12:48:12;93776.16;;;8.36;48.52
30819;BME280;17546;42.674;23.284;2023-04-04T12:50:52;93810.56;;;7.79;49.99
30819;BME280;17546;42.674;23.284;2023-04-04T12:53:21;93788.00;;;7.63;50.50
30819;BME280;17546;42.674;23.284;2023-04-04T12:55:48;93806.06;;;7.87;50.34
30819;BME280;17546;42.674;23.284;2023-04-04T12:58:15;93814.78;;;8.47;49.78
30819;BME280;17546;42.674;23.284;2023-04-04T13:00:41;93823.31;;;8.38;49.79
30819;BME280;17546;42.674;23.284;2023-04-04T13:03:07;93813.94;;;8.75;49.52
30819;BME280;17546;42.674;23.284;2023-04-04T13:05:33;93821.53;;;8.35;50.38
30819;BME280;17546;42.674;23.284;2023-04-04T13:08:09;93814.03;;;8.19;51.31
30819;BME280;17546;42.674;23.284;2023-04-04T13:11:04;93826.09;;;8.27;51.06
30819;BME280;17546;42.674;23.284;2023-04-04T13:15:56;93835.09;;;7.65;52.27
30819;BME280;17546;42.674;23.284;2023-04-04T13:18:25;93843.09;;;7.41;52.97
30819;BME280;17546;42.674;23.284;2023-04-04T13:20:56;93850.28;;;7.21;53.69
30819;BME280;17546;42.674;23.284;2023-04-04T13:23:22;93828.09;;;7.98;51.60